sensor_id;sensor_type;location;lat;lon;timestamp;temperature;humidity
44229;DHT22;29904;51.058;5.378;2023-10-31T00:00:46;10.70;99.90
44229;DHT22;29904;51.058;5.378;2023-10-31T00:03:12;10.70;99.90
44229;DHT22;29904;51.058;5.378;2023-10-31T00:05:38;10.70;99.90
44229;DHT22;29904;51.058;5.378;2023-10-31T00:08:04;10.70;99.90
44229;DHT22;29904;51.058;5.378;2023-10-31T00:10:30;10.70;99.90
44229;DHT22;29904;51.058;5.378;2023-10-31T00:12:55;10.70;99.90
44229;DHT22;29904;51.058;5.378;2023-10-31T00:15:21;10.80;99.90
44229;DHT22;29904;51.058;5.378;2023-10-31T00:17:47;10.80;99.90
44229;DHT22;29904;51.058;5.378;2023-10-31T00:20:12;10.70;99.90
44229;DHT22;29904;51.058;5.378;2023-10-31T00:22:38;10.70;99.90
44229;DHT22;29904;51.058;5.378;2023-10-31T00:25:04;10.70;99.90
44229;DHT22;29904;51.058;5.378;2023-10-31T00:27:30;10.80;99.90
44229;DHT22;29904;51.058;5.378;2023-10-31T00:29:56;10.80;99.90
44229;DHT22;29904;51.058;5.378;2023-10-31T00:32:21;10.70;99.90
44229;DHT22;29904;51.058;5.378;2023-10-31T00:34:47;10.80;99.90
44229;DHT22;29904;51.058;5.378;2023-10-31T00:37:13;10.70;99.90
44229;DHT22;29904;51.058;5.378;2023-10-31T00:39:39;10.70;99.90
44229;DHT22;29904;51.058;5.378;2023-10-31T00:42:05;10.70;99.90
44229;DHT22;29904;51.058;5.378;2023-10-31T00:44:30;10.70;99.90
44229;DHT22;29904;51.058;5.378;2023-10-31T00:46:56;10.70;99.90
44229;DHT22;29904;51.058;5.378;2023-10-31T00:49:22;10.70;99.90
44229;DHT22;29904;51.058;5.378;2023-10-31T00:51:47;10.70;99.90
44229;DHT22;29904;51.058;5.378;2023-10-31T00:54:13;10.70;99.90
44229;DHT22;29904;51.058;5.378;2023-10-31T00:56:39;10.70;99.90
44229;DHT22;29904;51.058;5.378;2023-10-31T00:59:05;10.70;99.90
44229;DHT22;29904;51.058;5.378;2023-10-31T01:01:31;10.70;99.90
44229;DHT22;29904;51.058;5.378;2023-10-31T01:03:57;10.70;99.90
44229;DHT22;29904;51.058;5.378;2023-10-31T01:06:22;10.80;99.90
44229;DHT22;29904;51.058;5.378;2023-10-31T01:08:48;10.80;99.90
44229;DHT22;29904;51.058;5.378;2023-10-31T01:11:14;10.70;99.90
44229;DHT22;29904;51.058;5.378;2023-10-31T01:13:40;10.80;99.90
44229;DHT22;29904;51.058;5.378;2023-10-31T01:16:05;10.80;99.90
44229;DHT22;29904;51.058;5.378;2023-10-31T01:18:31;10.80;99.90
44229;DHT22;29904;51.058;5.378;2023-10-31T01:20:57;10.90;99.90
44229;DHT22;29904;51.058;5.378;2023-10-31T01:23:23;10.90;99.90
44229;DHT22;29904;51.058;5.378;2023-10-31T01:25:48;10.80;99.90
44229;DHT22;29904;51.058;5.378;2023-10-31T01:28:14;10.90;99.90
44229;DHT22;29904;51.058;5.378;2023-10-31T01:30:40;10.90;99.90
44229;DHT22;29904;51.058;5.378;2023-10-31T01:33:05;10.90;99.90
44229;DHT22;29904;51.058;5.378;2023-10-31T01:35:31;10.90;99.90
44229;DHT22;29904;51.058;5.378;2023-10-31T01:37:57;10.90;99.90
44229;DHT22;29904;51.058;5.378;2023-10-31T01:40:22;10.90;99.90
44229;DHT22;29904;51.058;5.378;2023-10-31T01:42:48;10.90;99.90
44229;DHT22;29904;51.058;5.378;2023-10-31T01:45:14;10.90;99.90
44229;DHT22;29904;51.058;5.378;2023-10-31T01:47:40;10.90;99.90
44229;DHT22;29904;51.058;5.378;2023-10-31T01:50:07;10.90;99.90
44229;DHT22;29904;51.058;5.378;2023-10-31T01:52:34;10.90;99.90
44229;DHT22;29904;51.058;5.378;2023-10-31T01:55:02;10.90;99.90
44229;DHT22;29904;51.058;5.378;2023-10-31T01:57:28;11.00;99.90
44229;DHT22;29904;51.058;5.378;2023-10-31T01:59:53;11.00;99.90
44229;DHT22;29904;51.058;5.378;2023-10-31T02:02:22;11.00;99.90
44229;DHT22;29904;51.058;5.378;2023-10-31T02:04:48;11.10;99.90
44229;DHT22;29904;51.058;5.378;2023-10-31T02:07:14;11.00;99.90
44229;DHT22;29904;51.058;5.378;2023-10-31T02:09:40;11.10;99.90
44229;DHT22;29904;51.058;5.378;2023-10-31T02:12:06;11.00;99.90
44229;DHT22;29904;51.058;5.378;2023-10-31T02:14:31;11.10;99.90
44229;DHT22;29904;51.058;5.378;2023-10-31T02:16:57;11.00;99.90
44229;DHT22;29904;51.058;5.378;2023-10-31T02:19:23;11.00;99.90
44229;DHT22;29904;51.058;5.378;2023-10-31T02:21:48;11.00;99.90
44229;DHT22;29904;51.058;5.378;2023-10-31T02:24:14;11.00;99.90
44229;DHT22;29904;51.058;5.378;2023-10-31T02:26:40;11.00;99.90
44229;DHT22;29904;51.058;5.378;2023-10-31T02:29:05;11.00;99.90
44229;DHT22;29904;51.058;5.378;2023-10-31T02:31:32;10.90;99.90
44229;DHT22;29904;51.058;5.378;2023-10-31T02:33:58;10.90;99.90
44229;DHT22;29904;51.058;5.378;2023-10-31T02:36:23;10.90;99.90
44229;DHT22;29904;51.058;5.378;2023-10-31T02:38:49;10.90;99.90
44229;DHT22;29904;51.058;5.378;2023-10-31T02:41:15;10.90;99.90
44229;DHT22;29904;51.058;5.378;2023-10-31T02:43:42;10.90;99.90
44229;DHT22;29904;51.058;5.378;2023-10-31T02:46:08;10.90;99.90
44229;DHT22;29904;51.058;5.378;2023-10-31T02:48:34;10.90;99.90
44229;DHT22;29904;51.058;5.378;2023-10-31T02:51:08;10.90;99.90
44229;DHT22;29904;51.058;5.378;2023-10-31T02:53:34;10.90;99.90
44229;DHT22;29904;51.058;5.378;2023-10-31T02:56:01;10.90;99.90
44229;DHT22;29904;51.058;5.378;2023-10-31T02:58:26;10.90;99.90
44229;DHT22;29904;51.058;5.378;2023-10-31T03:00:52;11.00;99.90
44229;DHT22;29904;51.058;5.378;2023-10-31T03:03:17;11.00;99.90
44229;DHT22;29904;51.058;5.378;2023-10-31T03:05:43;11.00;99.90
44229;DHT22;29904;51.058;5.378;2023-10-31T03:08:09;11.00;99.90
44229;DHT22;29904;51.058;5.378;2023-10-31T03:10:38;11.00;99.90
44229;DHT22;29904;51.058;5.378;2023-10-31T03:13:03;11.10;99.90
44229;DHT22;29904;51.058;5.378;2023-10-31T03:15:29;11.10;99.90
44229;DHT22;29904;51.058;5.378;2023-10-31T03:17:55;11.10;99.90
44229;DHT22;29904;51.058;5.378;2023-10-31T03:20:20;11.10;99.90
44229;DHT22;29904;51.058;5.378;2023-10-31T03:22:46;11.10;99.90
44229;DHT22;29904;51.058;5.378;2023-10-31T03:25:12;11.10;99.90
44229;DHT22;29904;51.058;5.378;2023-10-31T03:27:37;11.00;99.90
44229;DHT22;29904;51.058;5.378;2023-10-31T03:30:04;11.00;99.90
44229;DHT22;29904;51.058;5.378;2023-10-31T03:32:30;11.00;99.90
44229;DHT22;29904;51.058;5.378;2023-10-31T03:34:55;11.00;99.90
44229;DHT22;29904;51.058;5.378;2023-10-31T03:37:21;11.00;99.90
44229;DHT22;29904;51.058;5.378;2023-10-31T03:39:47;10.90;99.90
44229;DHT22;29904;51.058;5.378;2023-10-31T03:42:12;10.90;99.90
44229;DHT22;29904;51.058;5.378;2023-10-31T03:44:38;10.90;99.90
44229;DHT22;29904;51.058;5.378;2023-10-31T03:47:04;10.90;99.90
44229;DHT22;29904;51.058;5.378;2023-10-31T03:49:29;10.90;99.90
44229;DHT22;29904;51.058;5.378;2023-10-31T03:51:55;10.90;99.90
44229;DHT22;29904;51.058;5.378;2023-10-31T03:54:21;10.90;99.90
44229;DHT22;29904;51.058;5.378;2023-10-31T03:56:46;10.90;99.90
44229;DHT22;29904;51.058;5.378;2023-10-31T03:59:14;10.90;99.90
44229;DHT22;29904;51.058;5.378;2023-10-31T04:01:39;10.90;99.90
44229;DHT22;29904;51.058;5.378;2023-10-31T04:04:05;10.90;99.90
44229;DHT22;29904;51.058;5.378;2023-10-31T04:06:32;10.90;99.90
44229;DHT22;29904;51.058;5.378;2023-10-31T04:08:57;10.90;99.90
44229;DHT22;29904;51.058;5.378;2023-10-31T04:11:23;10.90;99.90
44229;DHT22;29904;51.058;5.378;2023-10-31T04:13:49;10.90;99.90
44229;DHT22;29904;51.058;5.378;2023-10-31T04:16:15;10.90;99.90
44229;DHT22;29904;51.058;5.378;2023-10-31T04:18:41;10.80;99.90
44229;DHT22;29904;51.058;5.378;2023-10-31T04:21:06;10.80;99.90
44229;DHT22;29904;51.058;5.378;2023-10-31T04:23:32;10.80;99.90
44229;DHT22;29904;51.058;5.378;2023-10-31T04:25:58;10.80;99.90
44229;DHT22;29904;51.058;5.378;2023-10-31T04:28:24;10.80;99.90
44229;DHT22;29904;51.058;5.378;2023-10-31T04:30:49;10.90;99.90
44229;DHT22;29904;51.058;5.378;2023-10-31T04:33:15;10.80;99.90
44229;DHT22;29904;51.058;5.378;2023-10-31T04:35:41;10.80;99.90
44229;DHT22;29904;51.058;5.378;2023-10-31T04:38:07;10.90;99.90
44229;DHT22;29904;51.058;5.378;2023-10-31T04:40:32;10.90;99.90
44229;DHT22;29904;51.058;5.378;2023-10-31T04:42:58;10.90;99.90
44229;DHT22;29904;51.058;5.378;2023-10-31T04:45:24;10.90;99.90
44229;DHT22;29904;51.058;5.378;2023-10-31T04:47:49;10.90;99.90
44229;DHT22;29904;51.058;5.378;2023-10-31T04:50:15;10.90;99.90
44229;DHT22;29904;51.058;5.378;2023-10-31T04:52:41;10.90;99.90
44229;DHT22;29904;51.058;5.378;2023-10-31T04:55:07;10.80;99.90
44229;DHT22;29904;51.058;5.378;2023-10-31T04:57:33;10.80;99.90
44229;DHT22;29904;51.058;5.378;2023-10-31T04:59:59;10.80;99.90
44229;DHT22;29904;51.058;5.378;2023-10-31T05:02:25;10.80;99.90
44229;DHT22;29904;51.058;5.378;2023-10-31T05:04:50;10.70;99.90
44229;DHT22;29904;51.058;5.378;2023-10-31T05:07:19;10.70;99.90
44229;DHT22;29904;51.058;5.378;2023-10-31T05:09:45;10.60;99.90
44229;DHT22;29904;51.058;5.378;2023-10-31T05:12:11;10.60;99.90
44229;DHT22;29904;51.058;5.378;2023-10-31T05:14:37;10.50;99.90
44229;DHT22;29904;51.058;5.378;2023-10-31T05:17:02;10.40;99.90
44229;DHT22;29904;51.058;5.378;2023-10-31T05:19:29;10.40;99.90
44229;DHT22;29904;51.058;5.378;2023-10-31T05:21:55;10.30;99.90
44229;DHT22;29904;51.058;5.378;2023-10-31T05:24:21;10.30;99.90
44229;DHT22;29904;51.058;5.378;2023-10-31T05:26:46;10.30;99.90
44229;DHT22;29904;51.058;5.378;2023-10-31T05:29:12;10.30;99.90
44229;DHT22;29904;51.058;5.378;2023-10-31T05:31:38;10.30;99.90
44229;DHT22;29904;51.058;5.378;2023-10-31T05:34:03;10.30;99.90
44229;DHT22;29904;51.058;5.378;2023-10-31T05:36:29;10.30;99.90
44229;DHT22;29904;51.058;5.378;2023-10-31T05:38:55;10.30;99.90
44229;DHT22;29904;51.058;5.378;2023-10-31T05:41:21;10.30;99.90
44229;DHT22;29904;51.058;5.378;2023-10-31T05:43:47;10.30;99.90
44229;DHT22;29904;51.058;5.378;2023-10-31T05:46:13;10.30;99.90
44229;DHT22;29904;51.058;5.378;2023-10-31T05:48:41;10.30;99.90
44229;DHT22;29904;51.058;5.378;2023-10-31T05:51:18;10.40;99.90
44229;DHT22;29904;51.058;5.378;2023-10-31T05:53:45;10.40;99.90
44229;DHT22;29904;51.058;5.378;2023-10-31T05:56:12;10.40;99.90
44229;DHT22;29904;51.058;5.378;2023-10-31T05:58:40;10.40;99.90
44229;DHT22;29904;51.058;5.378;2023-10-31T06:01:05;10.40;99.90
44229;DHT22;29904;51.058;5.378;2023-10-31T06:03:32;10.30;99.90
44229;DHT22;29904;51.058;5.378;2023-10-31T06:05:58;10.30;99.90
44229;DHT22;29904;51.058;5.378;2023-10-31T06:08:24;10.30;99.90
44229;DHT22;29904;51.058;5.378;2023-10-31T06:10:53;10.30;99.90
44229;DHT22;29904;51.058;5.378;2023-10-31T06:13:18;10.30;99.90
44229;DHT22;29904;51.058;5.378;2023-10-31T06:15:44;10.20;99.90
44229;DHT22;29904;51.058;5.378;2023-10-31T06:18:10;10.30;99.90
44229;DHT22;29904;51.058;5.378;2023-10-31T06:20:35;10.30;99.90
44229;DHT22;29904;51.058;5.378;2023-10-31T06:23:02;10.20;99.90
44229;DHT22;29904;51.058;5.378;2023-10-31T06:25:30;10.20;99.90
44229;DHT22;29904;51.058;5.378;2023-10-31T06:27:56;10.20;99.90
44229;DHT22;29904;51.058;5.378;2023-10-31T06:30:22;10.30;99.90
44229;DHT22;29904;51.058;5.378;2023-10-31T06:32:50;10.30;99.90
44229;DHT22;29904;51.058;5.378;2023-10-31T06:35:16;10.30;99.90
44229;DHT22;29904;51.058;5.378;2023-10-31T06:37:42;10.30;99.90
44229;DHT22;29904;51.058;5.378;2023-10-31T06:40:08;10.20;99.90
44229;DHT22;29904;51.058;5.378;2023-10-31T06:42:34;10.30;99.90
44229;DHT22;29904;51.058;5.378;2023-10-31T06:45:00;10.30;99.90
44229;DHT22;29904;51.058;5.378;2023-10-31T06:47:25;10.20;99.90
44229;DHT22;29904;51.058;5.378;2023-10-31T06:49:51;10.30;99.90
44229;DHT22;29904;51.058;5.378;2023-10-31T06:52:17;10.30;99.90
44229;DHT22;29904;51.058;5.378;2023-10-31T06:54:43;10.40;99.90
44229;DHT22;29904;51.058;5.378;2023-10-31T06:57:08;10.40;99.90
44229;DHT22;29904;51.058;5.378;2023-10-31T06:59:34;10.40;99.90
44229;DHT22;29904;51.058;5.378;2023-10-31T07:02:00;10.40;99.90
44229;DHT22;29904;51.058;5.378;2023-10-31T07:04:26;10.50;99.90
44229;DHT22;29904;51.058;5.378;2023-10-31T07:06:51;10.50;99.90
44229;DHT22;29904;51.058;5.378;2023-10-31T07:09:23;10.50;99.90
44229;DHT22;29904;51.058;5.378;2023-10-31T07:11:49;10.40;99.90
44229;DHT22;29904;51.058;5.378;2023-10-31T07:14:15;10.50;99.90
44229;DHT22;29904;51.058;5.378;2023-10-31T07:16:40;10.50;99.90
44229;DHT22;29904;51.058;5.378;2023-10-31T07:19:12;10.60;99.90
44229;DHT22;29904;51.058;5.378;2023-10-31T07:21:37;10.60;99.90
44229;DHT22;29904;51.058;5.378;2023-10-31T07:24:03;10.60;99.90
44229;DHT22;29904;51.058;5.378;2023-10-31T07:26:29;10.70;99.90
44229;DHT22;29904;51.058;5.378;2023-10-31T07:28:55;10.60;99.90
44229;DHT22;29904;51.058;5.378;2023-10-31T07:31:21;10.60;99.90
44229;DHT22;29904;51.058;5.378;2023-10-31T07:33:47;10.60;99.90
44229;DHT22;29904;51.058;5.378;2023-10-31T07:36:13;10.50;99.90
44229;DHT22;29904;51.058;5.378;2023-10-31T07:38:39;10.60;99.90
44229;DHT22;29904;51.058;5.378;2023-10-31T07:41:04;10.60;99.90
44229;DHT22;29904;51.058;5.378;2023-10-31T07:43:30;10.60;99.90
44229;DHT22;29904;51.058;5.378;2023-10-31T07:45:55;10.60;99.90
44229;DHT22;29904;51.058;5.378;2023-10-31T07:48:21;10.50;99.90
44229;DHT22;29904;51.058;5.378;2023-10-31T07:50:47;10.40;99.90
44229;DHT22;29904;51.058;5.378;2023-10-31T07:53:12;10.40;99.90
44229;DHT22;29904;51.058;5.378;2023-10-31T07:55:38;10.30;99.90
44229;DHT22;29904;51.058;5.378;2023-10-31T07:58:04;10.30;99.90
44229;DHT22;29904;51.058;5.378;2023-10-31T08:00:29;10.30;99.90
44229;DHT22;29904;51.058;5.378;2023-10-31T08:02:56;10.20;99.90
44229;DHT22;29904;51.058;5.378;2023-10-31T08:05:22;10.20;99.90
44229;DHT22;29904;51.058;5.378;2023-10-31T08:07:47;10.20;99.90
44229;DHT22;29904;51.058;5.378;2023-10-31T08:10:13;10.10;99.90
44229;DHT22;29904;51.058;5.378;2023-10-31T08:12:39;10.20;99.90
44229;DHT22;29904;51.058;5.378;2023-10-31T08:15:05;10.20;99.90
44229;DHT22;29904;51.058;5.378;2023-10-31T08:17:31;10.30;99.90
44229;DHT22;29904;51.058;5.378;2023-10-31T08:19:56;10.40;99.90
44229;DHT22;29904;51.058;5.378;2023-10-31T08:22:22;10.50;99.90
44229;DHT22;29904;51.058;5.378;2023-10-31T08:24:48;10.60;99.90
44229;DHT22;29904;51.058;5.378;2023-10-31T08:27:14;10.70;99.90
44229;DHT22;29904;51.058;5.378;2023-10-31T08:29:39;10.80;99.90
44229;DHT22;29904;51.058;5.378;2023-10-31T08:32:06;10.90;99.90
44229;DHT22;29904;51.058;5.378;2023-10-31T08:34:31;11.00;99.90
44229;DHT22;29904;51.058;5.378;2023-10-31T08:36:57;11.00;99.90
44229;DHT22;29904;51.058;5.378;2023-10-31T08:39:25;11.10;99.90
44229;DHT22;29904;51.058;5.378;2023-10-31T08:41:55;11.10;99.90
44229;DHT22;29904;51.058;5.378;2023-10-31T08:44:21;11.20;99.90
44229;DHT22;29904;51.058;5.378;2023-10-31T08:46:47;11.30;99.90
44229;DHT22;29904;51.058;5.378;2023-10-31T08:49:14;11.40;99.90
44229;DHT22;29904;51.058;5.378;2023-10-31T08:51:41;11.40;99.90
44229;DHT22;29904;51.058;5.378;2023-10-31T08:54:07;11.40;99.90
44229;DHT22;29904;51.058;5.378;2023-10-31T08:56:32;11.40;99.90
44229;DHT22;29904;51.058;5.378;2023-10-31T08:58:58;11.50;99.90
44229;DHT22;29904;51.058;5.378;2023-10-31T09:01:24;11.70;99.90
44229;DHT22;29904;51.058;5.378;2023-10-31T09:03:50;11.80;99.90
44229;DHT22;29904;51.058;5.378;2023-10-31T09:06:16;11.80;99.90
44229;DHT22;29904;51.058;5.378;2023-10-31T09:08:41;12.00;99.90
44229;DHT22;29904;51.058;5.378;2023-10-31T09:11:07;12.10;99.90
44229;DHT22;29904;51.058;5.378;2023-10-31T09:13:33;12.20;99.90
44229;DHT22;29904;51.058;5.378;2023-10-31T09:15:59;12.30;99.90
44229;DHT22;29904;51.058;5.378;2023-10-31T09:18:25;12.40;99.90
44229;DHT22;29904;51.058;5.378;2023-10-31T09:20:51;12.50;99.90
44229;DHT22;29904;51.058;5.378;2023-10-31T09:23:17;12.40;99.90
44229;DHT22;29904;51.058;5.378;2023-10-31T09:25:44;12.40;99.90
44229;DHT22;29904;51.058;5.378;2023-10-31T09:28:10;12.40;99.90
44229;DHT22;29904;51.058;5.378;2023-10-31T09:30:35;12.50;99.90
44229;DHT22;29904;51.058;5.378;2023-10-31T09:33:01;12.40;99.90
44229;DHT22;29904;51.058;5.378;2023-10-31T09:35:27;12.50;99.90
44229;DHT22;29904;51.058;5.378;2023-10-31T09:37:54;12.40;99.90
44229;DHT22;29904;51.058;5.378;2023-10-31T09:40:20;12.40;99.90
44229;DHT22;29904;51.058;5.378;2023-10-31T09:42:46;12.30;99.90
44229;DHT22;29904;51.058;5.378;2023-10-31T09:45:12;12.50;99.90
44229;DHT22;29904;51.058;5.378;2023-10-31T09:47:41;12.70;99.90
44229;DHT22;29904;51.058;5.378;2023-10-31T09:50:10;12.90;99.90
44229;DHT22;29904;51.058;5.378;2023-10-31T09:52:38;13.10;99.90
44229;DHT22;29904;51.058;5.378;2023-10-31T09:55:04;13.10;99.90
44229;DHT22;29904;51.058;5.378;2023-10-31T09:57:31;13.00;99.90
44229;DHT22;29904;51.058;5.378;2023-10-31T09:59:57;13.10;99.90
44229;DHT22;29904;51.058;5.378;2023-10-31T10:02:23;13.10;99.90
44229;DHT22;29904;51.058;5.378;2023-10-31T10:04:49;13.30;99.90
44229;DHT22;29904;51.058;5.378;2023-10-31T10:07:17;13.40;99.90
44229;DHT22;29904;51.058;5.378;2023-10-31T10:09:44;13.50;99.90
44229;DHT22;29904;51.058;5.378;2023-10-31T10:12:12;13.60;99.90
44229;DHT22;29904;51.058;5.378;2023-10-31T10:14:39;13.60;99.90
44229;DHT22;29904;51.058;5.378;2023-10-31T10:17:20;13.40;99.90
44229;DHT22;29904;51.058;5.378;2023-10-31T10:19:46;13.50;99.90
44229;DHT22;29904;51.058;5.378;2023-10-31T10:22:12;13.70;99.90
44229;DHT22;29904;51.058;5.378;2023-10-31T10:24:40;13.90;99.90
44229;DHT22;29904;51.058;5.378;2023-10-31T10:27:09;14.00;99.90
44229;DHT22;29904;51.058;5.378;2023-10-31T10:29:37;14.00;99.90
44229;DHT22;29904;51.058;5.378;2023-10-31T10:32:05;14.10;99.90
44229;DHT22;29904;51.058;5.378;2023-10-31T10:34:33;14.20;99.90
44229;DHT22;29904;51.058;5.378;2023-10-31T10:36:59;14.20;99.90
44229;DHT22;29904;51.058;5.378;2023-10-31T10:39:26;14.30;99.90
44229;DHT22;29904;51.058;5.378;2023-10-31T10:41:54;14.30;99.90
44229;DHT22;29904;51.058;5.378;2023-10-31T10:44:28;14.30;99.90
44229;DHT22;29904;51.058;5.378;2023-10-31T10:46:56;14.20;99.90
44229;DHT22;29904;51.058;5.378;2023-10-31T10:49:24;14.00;99.90
44229;DHT22;29904;51.058;5.378;2023-10-31T10:51:52;14.00;99.90
44229;DHT22;29904;51.058;5.378;2023-10-31T10:54:26;13.90;99.90
44229;DHT22;29904;51.058;5.378;2023-10-31T10:57:09;13.90;99.90
44229;DHT22;29904;51.058;5.378;2023-10-31T10:59:41;14.00;99.90
44229;DHT22;29904;51.058;5.378;2023-10-31T11:02:08;14.10;99.90
44229;DHT22;29904;51.058;5.378;2023-10-31T11:04:36;14.20;99.90
44229;DHT22;29904;51.058;5.378;2023-10-31T11:07:02;14.10;99.90
44229;DHT22;29904;51.058;5.378;2023-10-31T11:09:30;14.00;99.90
44229;DHT22;29904;51.058;5.378;2023-10-31T11:11:57;14.00;99.90
44229;DHT22;29904;51.058;5.378;2023-10-31T11:14:23;14.00;99.90
44229;DHT22;29904;51.058;5.378;2023-10-31T11:16:55;13.90;99.90
44229;DHT22;29904;51.058;5.378;2023-10-31T11:19:26;13.90;99.90
44229;DHT22;29904;51.058;5.378;2023-10-31T11:21:57;13.90;99.90
44229;DHT22;29904;51.058;5.378;2023-10-31T11:24:23;14.00;99.90
44229;DHT22;29904;51.058;5.378;2023-10-31T11:26:52;14.00;99.90
44229;DHT22;29904;51.058;5.378;2023-10-31T11:29:19;14.20;99.90
44229;DHT22;29904;51.058;5.378;2023-10-31T11:31:46;14.20;99.90
44229;DHT22;29904;51.058;5.378;2023-10-31T11:34:12;14.20;99.90
44229;DHT22;29904;51.058;5.378;2023-10-31T11:36:38;14.30;99.90
44229;DHT22;29904;51.058;5.378;2023-10-31T11:39:14;14.30;99.90
44229;DHT22;29904;51.058;5.378;2023-10-31T11:41:48;14.40;99.90
44229;DHT22;29904;51.058;5.378;2023-10-31T11:44:15;14.40;99.90
44229;DHT22;29904;51.058;5.378;2023-10-31T11:46:41;14.30;99.90
44229;DHT22;29904;51.058;5.378;2023-10-31T11:49:07;14.20;99.90
44229;DHT22;29904;51.058;5.378;2023-10-31T11:51:33;14.20;99.90
44229;DHT22;29904;51.058;5.378;2023-10-31T11:54:02;14.30;99.90
44229;DHT22;29904;51.058;5.378;2023-10-31T11:56:28;14.30;99.90
44229;DHT22;29904;51.058;5.378;2023-10-31T11:59:00;14.40;99.90
44229;DHT22;29904;51.058;5.378;2023-10-31T12:01:26;14.30;99.90
44229;DHT22;29904;51.058;5.378;2023-10-31T12:03:52;14.20;99.90
44229;DHT22;29904;51.058;5.378;2023-10-31T12:06:18;14.20;99.90
44229;DHT22;29904;51.058;5.378;2023-10-31T12:08:45;14.20;99.90
44229;DHT22;29904;51.058;5.378;2023-10-31T12:11:16;14.30;99.90
44229;DHT22;29904;51.058;5.378;2023-10-31T12:13:59;14.30;99.90
44229;DHT22;29904;51.058;5.378;2023-10-31T12:16:30;14.50;99.90
44229;DHT22;29904;51.058;5.378;2023-10-31T12:19:01;14.70;99.90
44229;DHT22;29904;51.058;5.378;2023-10-31T12:21:42;14.80;99.90
44229;DHT22;29904;51.058;5.378;2023-10-31T12:24:16;14.80;99.90
44229;DHT22;29904;51.058;5.378;2023-10-31T12:26:42;14.70;99.90
44229;DHT22;29904;51.058;5.378;2023-10-31T12:34:19;14.60;99.90
44229;DHT22;29904;51.058;5.378;2023-10-31T12:36:46;14.60;99.90
44229;DHT22;29904;51.058;5.378;2023-10-31T12:39:13;14.70;99.90
44229;DHT22;29904;51.058;5.378;2023-10-31T12:41:40;14.80;99.90
44229;DHT22;29904;51.058;5.378;2023-10-31T12:44:07;14.90;99.90
44229;DHT22;29904;51.058;5.378;2023-10-31T12:46:40;14.90;99.90
44229;DHT22;29904;51.058;5.378;2023-10-31T12:49:11;14.80;99.90
44229;DHT22;29904;51.058;5.378;2023-10-31T12:52:01;14.60;99.90
44229;DHT22;29904;51.058;5.378;2023-10-31T12:54:36;14.50;99.90
44229;DHT22;29904;51.058;5.378;2023-10-31T12:57:09;14.50;99.90
44229;DHT22;29904;51.058;5.378;2023-10-31T12:59:36;14.50;99.90
44229;DHT22;29904;51.058;5.378;2023-10-31T13:02:03;14.50;99.90
44229;DHT22;29904;51.058;5.378;2023-10-31T13:04:33;14.50;99.90
44229;DHT22;29904;51.058;5.378;2023-10-31T13:07:03;14.50;99.90
44229;DHT22;29904;51.058;5.378;2023-10-31T13:09:34;14.50;99.90
44229;DHT22;29904;51.058;5.378;2023-10-31T13:12:02;14.50;99.90
44229;DHT22;29904;51.058;5.378;2023-10-31T13:14:29;14.50;99.90
44229;DHT22;29904;51.058;5.378;2023-10-31T13:16:54;14.60;99.90
44229;DHT22;29904;51.058;5.378;2023-10-31T13:19:20;14.60;99.90
44229;DHT22;29904;51.058;5.378;2023-10-31T13:21:46;14.60;99.90
44229;DHT22;29904;51.058;5.378;2023-10-31T13:24:12;14.50;99.90
44229;DHT22;29904;51.058;5.378;2023-10-31T13:26:37;14.40;99.90
44229;DHT22;29904;51.058;5.378;2023-10-31T13:29:03;14.30;99.90
44229;DHT22;29904;51.058;5.378;2023-10-31T13:31:29;14.10;99.90
44229;DHT22;29904;51.058;5.378;2023-10-31T13:33:54;14.20;99.90
44229;DHT22;29904;51.058;5.378;2023-10-31T13:36:20;14.20;99.90
44229;DHT22;29904;51.058;5.378;2023-10-31T13:38:49;14.20;99.90
44229;DHT22;29904;51.058;5.378;2023-10-31T13:41:15;14.10;99.90
44229;DHT22;29904;51.058;5.378;2023-10-31T13:43:41;14.10;99.90
44229;DHT22;29904;51.058;5.378;2023-10-31T13:46:06;14.10;99.90
44229;DHT22;29904;51.058;5.378;2023-10-31T13:48:32;13.90;99.90
44229;DHT22;29904;51.058;5.378;2023-10-31T13:50:58;13.80;99.90
44229;DHT22;29904;51.058;5.378;2023-10-31T13:53:24;13.70;99.90
44229;DHT22;29904;51.058;5.378;2023-10-31T13:55:49;13.50;99.90
44229;DHT22;29904;51.058;5.378;2023-10-31T13:58:15;13.30;99.90
44229;DHT22;29904;51.058;5.378;2023-10-31T14:00:43;13.10;99.90
44229;DHT22;29904;51.058;5.378;2023-10-31T14:03:11;13.00;99.90
44229;DHT22;29904;51.058;5.378;2023-10-31T14:05:36;12.90;99.90
44229;DHT22;29904;51.058;5.378;2023-10-31T14:08:03;12.80;99.90
44229;DHT22;29904;51.058;5.378;2023-10-31T14:10:31;12.80;99.90
44229;DHT22;29904;51.058;5.378;2023-10-31T14:12:57;12.70;99.90
44229;DHT22;29904;51.058;5.378;2023-10-31T14:15:22;12.70;99.90
44229;DHT22;29904;51.058;5.378;2023-10-31T14:17:50;12.70;99.90
44229;DHT22;29904;51.058;5.378;2023-10-31T14:20:16;12.60;99.90
44229;DHT22;29904;51.058;5.378;2023-10-31T14:22:47;12.60;99.90
44229;DHT22;29904;51.058;5.378;2023-10-31T14:25:13;12.60;99.90
44229;DHT22;29904;51.058;5.378;2023-10-31T14:27:38;12.60;99.90
44229;DHT22;29904;51.058;5.378;2023-10-31T14:30:05;12.50;99.90
44229;DHT22;29904;51.058;5.378;2023-10-31T14:32:31;12.40;99.90
44229;DHT22;29904;51.058;5.378;2023-10-31T14:34:56;12.40;99.90
44229;DHT22;29904;51.058;5.378;2023-10-31T14:37:22;12.40;99.90
44229;DHT22;29904;51.058;5.378;2023-10-31T14:39:48;12.40;99.90
44229;DHT22;29904;51.058;5.378;2023-10-31T14:42:13;12.40;99.90
44229;DHT22;29904;51.058;5.378;2023-10-31T14:44:39;12.30;99.90
44229;DHT22;29904;51.058;5.378;2023-10-31T14:47:04;12.30;99.90
44229;DHT22;29904;51.058;5.378;2023-10-31T14:49:30;12.30;99.90
44229;DHT22;29904;51.058;5.378;2023-10-31T14:51:56;12.30;99.90
44229;DHT22;29904;51.058;5.378;2023-10-31T14:54:22;12.20;99.90
44229;DHT22;29904;51.058;5.378;2023-10-31T14:56:48;12.20;99.90
44229;DHT22;29904;51.058;5.378;2023-10-31T14:59:13;12.20;99.90
44229;DHT22;29904;51.058;5.378;2023-10-31T15:01:39;12.30;99.90
44229;DHT22;29904;51.058;5.378;2023-10-31T15:04:05;12.30;99.90
44229;DHT22;29904;51.058;5.378;2023-10-31T15:06:30;12.20;99.90
44229;DHT22;29904;51.058;5.378;2023-10-31T15:08:56;12.30;99.90
44229;DHT22;29904;51.058;5.378;2023-10-31T15:11:22;12.30;99.90
44229;DHT22;29904;51.058;5.378;2023-10-31T15:13:48;12.30;99.90
44229;DHT22;29904;51.058;5.378;2023-10-31T15:16:14;12.40;99.90
44229;DHT22;29904;51.058;5.378;2023-10-31T15:18:39;12.40;99.90
44229;DHT22;29904;51.058;5.378;2023-10-31T15:21:05;12.50;99.90
44229;DHT22;29904;51.058;5.378;2023-10-31T15:23:31;12.50;99.90
44229;DHT22;29904;51.058;5.378;2023-10-31T15:25:58;12.50;99.90
44229;DHT22;29904;51.058;5.378;2023-10-31T15:28:23;12.40;99.90
44229;DHT22;29904;51.058;5.378;2023-10-31T15:30:51;12.40;99.90